createdAt,value
2019-05-05T00:01:41.983Z,77.50
2019-05-05T00:04:24.292Z,77.90
2019-05-05T00:06:54.816Z,77.10
2019-05-05T00:09:25.078Z,78.00
2019-05-05T00:12:11.040Z,77.90
2019-05-05T00:14:59.254Z,78.20
2019-05-05T00:17:28.422Z,77.60
2019-05-05T00:19:57.940Z,78.00
2019-05-05T00:22:27.930Z,77.70
2019-05-05T00:24:56.070Z,78.10
2019-05-05T00:27:25.424Z,78.30
2019-05-05T00:29:54.729Z,78.40
2019-05-05T00:32:24.363Z,78.00
2019-05-05T00:34:54.983Z,78.20
2019-05-05T00:37:22.933Z,78.30
2019-05-05T00:39:51.355Z,78.20
2019-05-05T00:42:19.230Z,77.70
2019-05-05T00:44:47.511Z,78.10
2019-05-05T00:47:40.921Z,78.30
2019-05-05T00:50:11.100Z,78.60
2019-05-05T00:52:39.156Z,78.00
2019-05-05T00:55:07.995Z,78.20
2019-05-05T00:57:36.263Z,77.90
2019-05-05T01:00:06.738Z,77.50
2019-05-05T01:02:41.825Z,77.70
2019-05-05T01:05:35.708Z,78.10
2019-05-05T01:08:05.384Z,78.50
2019-05-05T01:10:35.297Z,77.30
2019-05-05T01:13:04.664Z,76.90
2019-05-05T01:15:32.103Z,76.80
2019-05-05T01:18:02.217Z,77.40
2019-05-05T01:20:29.153Z,77.70
2019-05-05T01:22:56.842Z,77.70
2019-05-05T01:25:25.409Z,77.50
2019-05-05T01:27:54.558Z,77.20
2019-05-05T01:30:27.940Z,76.40
2019-05-05T01:33:00.691Z,76.60
2019-05-05T01:35:28.124Z,77.40
2019-05-05T01:38:04.910Z,76.40
2019-05-05T01:40:41.195Z,76.80
2019-05-05T01:43:08.542Z,77.30
2019-05-05T01:45:36.310Z,78.10
2019-05-05T01:48:04.914Z,78.10
2019-05-05T01:50:34.429Z,78.30
2019-05-05T01:53:01.842Z,77.10
2019-05-05T01:55:29.213Z,76.80
2019-05-05T01:57:57.046Z,76.90
2019-05-05T02:00:25.367Z,77.70
2019-05-05T02:02:52.870Z,77.40
2019-05-05T02:05:20.508Z,78.20
2019-05-05T02:07:48.062Z,78.30
2019-05-05T02:10:16.032Z,78.10
2019-05-05T02:12:44.750Z,77.70
2019-05-05T02:15:14.953Z,77.60
2019-05-05T02:17:44.387Z,77.80
2019-05-05T02:20:41.689Z,77.50
2019-05-05T02:23:10.773Z,77.00
2019-05-05T02:25:38.383Z,76.90
2019-05-05T02:28:05.842Z,77.10
2019-05-05T02:30:46.499Z,76.90
2019-05-05T02:33:15.692Z,76.40
2019-05-05T02:35:45.627Z,76.80
2019-05-05T02:38:15.420Z,77.00
2019-05-05T02:40:45.247Z,76.60
2019-05-05T02:43:15.063Z,76.60
2019-05-05T02:45:55.291Z,77.40
2019-05-05T02:48:24.956Z,77.30
2019-05-05T02:51:01.715Z,77.70
2019-05-05T02:53:30.391Z,77.90
2019-05-05T02:56:04.201Z,78.00
2019-05-05T02:58:33.951Z,77.70
2019-05-05T03:01:17.695Z,78.10
2019-05-05T03:03:45.255Z,77.10
2019-05-05T03:06:14.474Z,77.70
2019-05-05T03:08:43.975Z,78.00
2019-05-05T03:11:14.445Z,78.10
2019-05-05T03:13:44.314Z,77.60
2019-05-05T03:16:16.621Z,76.90
2019-05-05T03:18:44.379Z,77.70
2019-05-05T03:21:13.923Z,78.40
2019-05-05T03:23:41.638Z,78.70
2019-05-05T03:26:09.566Z,78.10
2019-05-05T03:28:43.888Z,78.40
2019-05-05T03:31:15.547Z,78.30
2019-05-05T03:33:45.571Z,78.60
2019-05-05T03:36:14.017Z,78.30
2019-05-05T03:38:44.164Z,77.10
2019-05-05T03:41:18.981Z,78.70
2019-05-05T03:44:18.052Z,78.20
2019-05-05T03:46:45.491Z,77.90
2019-05-05T03:49:14.018Z,78.20
2019-05-05T03:51:43.735Z,77.80
2019-05-05T03:54:11.050Z,78.30
2019-05-05T03:56:38.486Z,78.40
2019-05-05T03:59:05.990Z,78.80
2019-05-05T04:01:37.743Z,78.20
2019-05-05T04:04:28.495Z,78.60
2019-05-05T04:06:56.582Z,79.10
2019-05-05T04:09:24.347Z,78.70
2019-05-05T04:11:53.982Z,79.40
2019-05-05T04:14:21.594Z,79.40
2019-05-05T04:17:11.117Z,79.10
2019-05-05T04:19:40.352Z,78.80
2019-05-05T04:22:07.744Z,79.20
2019-05-05T04:24:35.198Z,78.60
2019-05-05T04:27:04.377Z,78.40
2019-05-05T04:29:31.705Z,78.30
2019-05-05T04:31:59.432Z,78.30
2019-05-05T04:34:26.790Z,77.90
2019-05-05T04:36:54.712Z,77.90
2019-05-05T04:39:23.683Z,78.00
2019-05-05T04:41:51.614Z,77.70
2019-05-05T04:44:19.061Z,77.80
2019-05-05T04:46:48.378Z,76.80
2019-05-05T04:49:31.632Z,77.20
2019-05-05T04:52:00.537Z,75.90
2019-05-05T04:54:50.363Z,75.60
2019-05-05T04:57:17.761Z,76.10
2019-05-05T04:59:46.260Z,75.50
2019-05-05T05:02:36.332Z,76.00
2019-05-05T05:05:09.410Z,75.20
2019-05-05T05:07:37.033Z,75.40
2019-05-05T05:10:04.601Z,75.20
2019-05-05T05:12:33.976Z,75.10
2019-05-05T05:15:01.281Z,76.10
2019-05-05T05:17:36.666Z,75.70
2019-05-05T05:20:04.528Z,74.80
2019-05-05T05:22:33.432Z,74.80
2019-05-05T05:25:01.131Z,74.20
2019-05-05T05:27:28.581Z,73.90
2019-05-05T05:29:56.469Z,73.50
2019-05-05T05:32:24.732Z,74.60
2019-05-05T05:34:54.100Z,74.60
2019-05-05T05:37:21.581Z,74.50
2019-05-05T05:40:03.780Z,74.50
2019-05-05T05:42:31.179Z,75.00
2019-05-05T05:45:14.704Z,74.10
2019-05-05T05:48:05.011Z,73.80
2019-05-05T05:50:44.320Z,74.10
2019-05-05T05:53:13.838Z,73.90
2019-05-05T05:55:41.170Z,73.60
2019-05-05T05:58:08.715Z,72.90
2019-05-05T06:00:36.458Z,72.10
2019-05-05T06:03:04.180Z,72.30
2019-05-05T06:05:31.630Z,72.10
2019-05-05T06:07:59.491Z,72.50
2019-05-05T06:10:27.537Z,73.10
2019-05-05T06:12:55.260Z,72.80
2019-05-05T06:15:24.460Z,73.00
2019-05-05T06:17:53.805Z,71.80
2019-05-05T06:20:21.172Z,71.50
2019-05-05T06:22:48.742Z,72.00
2019-05-05T06:25:16.321Z,71.10
2019-05-05T06:27:44.575Z,71.60
2019-05-05T06:30:13.788Z,72.70
2019-05-05T06:32:43.647Z,72.10
2019-05-05T06:35:13.722Z,72.40
2019-05-05T06:37:54.241Z,72.50
2019-05-05T06:40:30.054Z,72.60
2019-05-05T06:43:17.329Z,72.20
2019-05-05T06:45:53.439Z,72.90
2019-05-05T06:48:23.642Z,71.50
2019-05-05T06:50:51.144Z,72.10
2019-05-05T06:53:18.731Z,71.70
2019-05-05T06:55:46.338Z,70.90
2019-05-05T06:58:13.978Z,70.70
2019-05-05T07:00:41.440Z,71.40
2019-05-05T07:03:08.919Z,70.50
2019-05-05T07:05:36.322Z,70.50
2019-05-05T07:08:04.379Z,70.60
2019-05-05T07:10:33.731Z,69.40
2019-05-05T07:13:01.376Z,68.70
2019-05-05T07:15:29.153Z,68.70
2019-05-05T07:17:56.584Z,68.50
2019-05-05T07:20:26.268Z,68.80
2019-05-05T07:23:01.403Z,68.30
2019-05-05T07:25:24.240Z,67.40
2019-05-05T07:27:51.867Z,67.20
2019-05-05T07:30:19.236Z,66.70
2019-05-05T07:32:46.597Z,66.90
2019-05-05T07:35:52.454Z,66.60
2019-05-05T07:38:08.107Z,65.80
2019-05-05T07:40:35.480Z,65.30
2019-05-05T07:43:04.470Z,66.20
2019-05-05T07:45:34.178Z,66.90
2019-05-05T07:48:01.522Z,68.00
2019-05-05T07:50:32.502Z,67.40
2019-05-05T07:53:11.533Z,66.80
2019-05-05T07:55:27.388Z,66.30
2019-05-05T07:57:54.755Z,66.80
2019-05-05T08:00:24.038Z,66.70
2019-05-05T08:02:51.576Z,67.50
2019-05-05T08:05:19.309Z,67.60
2019-05-05T08:07:46.667Z,67.20
2019-05-05T08:10:14.195Z,66.00
2019-05-05T08:12:43.547Z,66.10
2019-05-05T08:15:11.087Z,65.50
2019-05-05T08:18:01.788Z,64.40
2019-05-05T08:20:34.613Z,64.00
2019-05-05T08:23:04.135Z,65.20
2019-05-05T08:25:56.624Z,65.40
2019-05-05T08:28:43.382Z,65.60
2019-05-05T08:31:18.942Z,65.70
2019-05-05T08:33:46.394Z,63.90
2019-05-05T08:36:14.677Z,62.90
2019-05-05T08:38:44.121Z,63.70
2019-05-05T08:41:13.735Z,63.70
2019-05-05T08:43:41.213Z,63.30
2019-05-05T08:46:08.723Z,63.50
2019-05-05T08:48:36.311Z,62.20
2019-05-05T08:51:04.838Z,62.40
2019-05-05T08:53:42.554Z,63.10
2019-05-05T08:56:03.937Z,62.30
2019-05-05T08:58:31.117Z,60.90
2019-05-05T09:00:58.504Z,60.40
2019-05-05T09:03:25.943Z,60.50
2019-05-05T09:05:54.261Z,61.40
2019-05-05T09:08:24.009Z,62.60
2019-05-05T09:10:53.071Z,62.10
2019-05-05T09:13:20.671Z,59.90
2019-05-05T09:15:48.031Z,60.50
2019-05-05T09:18:15.451Z,58.90
2019-05-05T09:20:44.609Z,57.30
2019-05-05T09:23:14.576Z,59.20
2019-05-05T09:26:06.484Z,56.60
2019-05-05T09:28:49.175Z,57.00
2019-05-05T09:31:16.646Z,58.40
2019-05-05T09:33:44.308Z,57.40
2019-05-05T09:36:13.803Z,58.40
2019-05-05T09:38:41.257Z,59.10
2019-05-05T09:41:08.823Z,59.80
2019-05-05T09:43:36.282Z,60.40
2019-05-05T09:46:03.997Z,60.10
2019-05-05T09:48:33.437Z,57.50
2019-05-05T09:51:01.154Z,57.80
2019-05-05T09:53:28.561Z,57.80
2019-05-05T09:55:56.008Z,57.10
2019-05-05T09:58:24.224Z,56.60
2019-05-05T10:00:51.820Z,56.30
2019-05-05T10:03:19.168Z,55.60
2019-05-05T10:05:46.497Z,55.20
2019-05-05T10:08:14.367Z,55.90
2019-05-05T10:10:44.201Z,54.30
2019-05-05T10:13:14.572Z,55.20
2019-05-05T10:15:41.261Z,53.60
2019-05-05T10:18:09.266Z,53.10
2019-05-05T10:20:36.702Z,51.40
2019-05-05T10:23:04.122Z,52.30
2019-05-05T10:25:53.992Z,51.70
2019-05-05T10:28:21.615Z,52.80
2019-05-05T10:30:49.071Z,54.20
2019-05-05T10:33:16.513Z,54.50
2019-05-05T10:35:44.735Z,55.60
2019-05-05T10:38:14.100Z,56.90
2019-05-05T10:40:41.875Z,55.30
2019-05-05T10:43:09.353Z,56.60
2019-05-05T10:45:36.814Z,56.20
2019-05-05T10:48:04.408Z,56.80
2019-05-05T10:50:33.901Z,57.40
2019-05-05T10:53:01.599Z,56.30
2019-05-05T10:55:29.812Z,56.60
2019-05-05T10:57:57.225Z,55.30
2019-05-05T11:00:44.125Z,55.00
2019-05-05T11:03:11.310Z,55.60
2019-05-05T11:05:39.006Z,56.00
2019-05-05T11:08:09.603Z,55.20
2019-05-05T11:10:37.801Z,55.80
2019-05-05T11:13:05.703Z,56.50
2019-05-05T11:15:33.624Z,55.90
2019-05-05T11:18:01.370Z,57.90
2019-05-05T11:20:29.504Z,58.10
2019-05-05T11:22:57.695Z,57.00
2019-05-05T11:25:25.519Z,57.10
2019-05-05T11:27:54.159Z,55.70
2019-05-05T11:30:33.883Z,55.20
2019-05-05T11:33:18.674Z,54.40
2019-05-05T11:35:50.378Z,53.10
2019-05-05T11:38:17.889Z,52.90
2019-05-05T11:40:45.309Z,53.20
2019-05-05T11:43:14.186Z,52.50
2019-05-05T11:45:43.715Z,52.50
2019-05-05T11:48:11.351Z,53.30
2019-05-05T11:50:38.862Z,55.70
2019-05-05T11:53:06.397Z,55.40
2019-05-05T11:55:33.836Z,54.80
2019-05-05T11:58:01.221Z,54.70
2019-05-05T12:00:28.715Z,53.90
2019-05-05T12:02:56.163Z,54.70
2019-05-05T12:05:24.406Z,55.60
2019-05-05T12:07:54.124Z,56.40
2019-05-05T12:10:40.775Z,58.90
2019-05-05T12:13:09.378Z,58.70
2019-05-05T12:15:37.078Z,59.80
2019-05-05T12:18:34.636Z,59.50
2019-05-05T12:21:02.071Z,60.00
2019-05-05T12:23:30.297Z,59.60
2019-05-05T12:26:24.341Z,56.70
2019-05-05T12:29:14.349Z,56.30
2019-05-05T12:31:45.187Z,53.20
2019-05-05T12:34:12.735Z,44.60
2019-05-05T12:36:40.163Z,37.60
2019-05-05T12:39:14.210Z,36.30
2019-05-05T12:41:42.880Z,36.30
2019-05-05T12:44:14.258Z,38.20
2019-05-05T12:47:01.384Z,39.20
2019-05-05T12:49:28.949Z,41.30
2019-05-05T12:51:58.155Z,41.30
2019-05-05T12:54:26.332Z,41.10
2019-05-05T12:56:57.055Z,41.00
2019-05-05T12:59:26.606Z,42.20
2019-05-05T13:01:55.845Z,42.60
2019-05-05T13:04:24.576Z,43.30
2019-05-05T13:06:54.065Z,43.30
2019-05-05T13:09:24.377Z,45.30
2019-05-05T13:11:54.224Z,45.30
2019-05-05T13:14:24.530Z,45.30
2019-05-05T13:16:53.861Z,44.80
2019-05-05T13:19:30.696Z,42.20
2019-05-05T13:22:26.574Z,42.50
2019-05-05T13:25:05.697Z,43.10
2019-05-05T13:27:36.717Z,45.40
2019-05-05T13:30:05.732Z,45.30
2019-05-05T13:32:33.626Z,43.90
2019-05-05T13:35:03.494Z,43.00
2019-05-05T13:37:30.934Z,43.30
2019-05-05T13:39:59.144Z,43.90
2019-05-05T13:42:26.934Z,43.90
2019-05-05T13:44:59.997Z,42.80
2019-05-05T13:47:28.305Z,44.50
2019-05-05T13:50:17.577Z,44.50
2019-05-05T13:52:48.154Z,43.20
2019-05-05T13:55:21.186Z,42.90
2019-05-05T13:57:49.089Z,40.40
2019-05-05T14:00:18.494Z,37.90
2019-05-05T14:02:47.012Z,37.20
2019-05-05T14:05:14.876Z,37.50
2019-05-05T14:07:43.735Z,38.10
2019-05-05T14:10:14.248Z,38.00
2019-05-05T14:12:43.638Z,38.90
2019-05-05T14:15:15.800Z,40.10
2019-05-05T14:17:43.995Z,39.70
2019-05-05T14:20:15.005Z,39.50
2019-05-05T14:22:43.829Z,39.90
2019-05-05T14:25:16.645Z,40.30
2019-05-05T14:27:44.377Z,40.80
2019-05-05T14:30:23.640Z,41.90
2019-05-05T14:32:51.774Z,44.20
2019-05-05T14:35:27.075Z,41.90
2019-05-05T14:37:57.773Z,40.40
2019-05-05T14:40:26.040Z,41.30
2019-05-05T14:42:54.146Z,42.80
2019-05-05T14:45:23.488Z,45.30
2019-05-05T14:47:53.505Z,46.20
2019-05-05T14:50:21.397Z,46.80
2019-05-05T14:52:49.038Z,47.80
2019-05-05T14:55:16.927Z,49.90
2019-05-05T14:57:44.980Z,49.50
2019-05-05T15:00:15.889Z,49.20
2019-05-05T15:02:44.611Z,48.50
2019-05-05T15:05:30.390Z,47.80
2019-05-05T15:08:09.884Z,49.00
2019-05-05T15:10:56.610Z,48.30
2019-05-05T15:13:24.400Z,47.60
2019-05-05T15:15:53.917Z,48.60
2019-05-05T15:18:23.964Z,47.90
2019-05-05T15:20:51.815Z,47.90
2019-05-05T15:23:20.506Z,48.00
2019-05-05T15:25:48.730Z,48.00
2019-05-05T15:28:16.998Z,46.90
2019-05-05T15:30:45.180Z,48.20
2019-05-05T15:33:13.796Z,47.10
2019-05-05T15:35:46.322Z,47.20
2019-05-05T15:38:13.771Z,46.80
2019-05-05T15:40:44.495Z,47.70
2019-05-05T15:43:11.763Z,48.30
2019-05-05T15:45:39.750Z,46.20
2019-05-05T15:48:07.592Z,46.20
2019-05-05T15:50:35.387Z,45.90
2019-05-05T15:53:03.845Z,46.30
2019-05-05T15:55:31.490Z,46.00
2019-05-05T15:57:59.558Z,47.90
2019-05-05T16:00:27.631Z,47.90
2019-05-05T16:02:55.674Z,48.20
2019-05-05T16:05:24.255Z,46.10
2019-05-05T16:07:54.161Z,47.40
2019-05-05T16:10:23.241Z,45.10
2019-05-05T16:12:53.614Z,45.50
2019-05-05T16:16:00.176Z,46.50
2019-05-05T16:18:35.962Z,45.00
2019-05-05T16:21:29.175Z,44.50
2019-05-05T16:24:03.509Z,43.60
2019-05-05T16:26:31.418Z,44.50
2019-05-05T16:28:59.371Z,44.30
2019-05-05T16:31:27.850Z,45.90
2019-05-05T16:33:55.608Z,46.40
2019-05-05T16:36:24.325Z,43.90
2019-05-05T16:38:52.991Z,46.00
2019-05-05T16:41:21.291Z,43.70
2019-05-05T16:43:49.717Z,45.10
2019-05-05T16:46:17.810Z,45.30
2019-05-05T16:48:46.592Z,44.40
2019-05-05T16:51:17.168Z,45.10
2019-05-05T16:53:44.839Z,45.00
2019-05-05T16:56:14.396Z,44.00
2019-05-05T16:58:44.891Z,45.60
2019-05-05T17:01:14.559Z,45.60
2019-05-05T17:03:45.346Z,47.10
2019-05-05T17:06:13.499Z,44.80
2019-05-05T17:08:44.217Z,46.40
2019-05-05T17:11:12.199Z,46.30
2019-05-05T17:13:52.080Z,45.50
2019-05-05T17:16:45.546Z,45.60
2019-05-05T17:19:17.868Z,46.90
2019-05-05T17:22:04.238Z,46.90
2019-05-05T17:24:34.438Z,45.90
2019-05-05T17:27:03.573Z,46.60
2019-05-05T17:29:31.561Z,48.20
2019-05-05T17:32:00.406Z,47.70
2019-05-05T17:34:28.437Z,48.30
2019-05-05T17:36:56.533Z,46.30
2019-05-05T17:39:27.972Z,48.20
2019-05-05T17:42:30.530Z,47.80
2019-05-05T17:45:20.205Z,49.10
2019-05-05T17:48:01.487Z,48.70
2019-05-05T17:50:47.915Z,49.70
2019-05-05T17:53:30.768Z,48.90
2019-05-05T17:55:59.632Z,49.10
2019-05-05T17:58:27.818Z,49.90
2019-05-05T18:00:58.670Z,50.10
2019-05-05T18:03:26.635Z,50.00
2019-05-05T18:06:05.662Z,49.60
2019-05-05T18:08:55.355Z,49.50
2019-05-05T18:11:44.175Z,50.20
2019-05-05T18:14:18.059Z,51.20
2019-05-05T18:16:46.773Z,51.00
2019-05-05T18:19:15.536Z,51.00
2019-05-05T18:21:44.067Z,52.00
2019-05-05T18:24:13.745Z,52.20
2019-05-05T18:26:43.527Z,51.40
2019-05-05T18:29:12.155Z,52.30
2019-05-05T18:31:40.181Z,51.80
2019-05-05T18:34:08.814Z,51.90
2019-05-05T18:36:37.485Z,52.70
2019-05-05T18:39:07.534Z,53.60
2019-05-05T18:42:04.389Z,53.40
2019-05-05T18:44:38.591Z,52.20
2019-05-05T18:47:18.163Z,53.70
2019-05-05T18:49:45.723Z,54.00
2019-05-05T18:52:14.598Z,54.40
2019-05-05T18:54:43.749Z,54.20
2019-05-05T18:57:12.232Z,54.80
2019-05-05T18:59:40.668Z,55.40
2019-05-05T19:02:25.801Z,56.10
2019-05-05T19:05:09.066Z,56.50
2019-05-05T19:07:55.214Z,57.50
2019-05-05T19:10:14.540Z,57.80
2019-05-05T19:12:44.281Z,57.80
2019-05-05T19:15:13.626Z,57.90
2019-05-05T19:17:42.033Z,57.80
2019-05-05T19:20:27.662Z,57.60
2019-05-05T19:23:02.919Z,57.90
2019-05-05T19:25:30.352Z,58.10
2019-05-05T19:27:58.859Z,58.90
2019-05-05T19:30:27.226Z,58.90
2019-05-05T19:32:55.984Z,58.20
2019-05-05T19:35:40.172Z,58.30
2019-05-05T19:37:54.081Z,58.70
2019-05-05T19:40:24.312Z,58.90
2019-05-05T19:42:53.864Z,58.50
2019-05-05T19:45:24.113Z,58.50
2019-05-05T19:47:53.093Z,58.80
2019-05-05T19:50:25.599Z,59.30
2019-05-05T19:52:54.319Z,58.90
2019-05-05T19:55:22.591Z,59.40
2019-05-05T19:57:50.911Z,59.60
2019-05-05T20:00:20.225Z,59.30
2019-05-05T20:03:01.359Z,59.00
2019-05-05T20:05:19.249Z,59.20
2019-05-05T20:07:47.916Z,59.40
2019-05-05T20:10:17.735Z,59.40
2019-05-05T20:12:47.007Z,59.40
2019-05-05T20:15:21.940Z,58.90
2019-05-05T20:17:50.680Z,59.20
2019-05-05T20:20:19.040Z,59.20
2019-05-05T20:22:47.681Z,59.40
2019-05-05T20:25:15.935Z,59.20
2019-05-05T20:27:44.717Z,59.50
2019-05-05T20:30:14.353Z,59.30
2019-05-05T20:33:04.084Z,59.40
2019-05-05T20:35:54.951Z,60.20
2019-05-05T20:38:35.571Z,59.90
2019-05-05T20:41:14.405Z,59.60
2019-05-05T20:43:44.829Z,60.10
2019-05-05T20:46:13.257Z,60.60
2019-05-05T20:48:41.490Z,60.50
2019-05-05T20:51:09.523Z,60.70
2019-05-05T20:53:37.594Z,60.30
2019-05-05T20:56:05.545Z,60.70
2019-05-05T20:58:34.127Z,60.70
2019-05-05T21:01:04.241Z,61.00
2019-05-05T21:03:31.989Z,61.10
2019-05-05T21:06:00.385Z,61.20
2019-05-05T21:08:28.907Z,61.30
2019-05-05T21:10:56.790Z,61.50
2019-05-05T21:13:25.190Z,61.20
2019-05-05T21:15:53.891Z,61.20
2019-05-05T21:18:23.923Z,61.50
2019-05-05T21:20:52.053Z,61.40
2019-05-05T21:23:24.614Z,61.60
2019-05-05T21:26:04.370Z,61.60
2019-05-05T21:28:33.624Z,61.70
2019-05-05T21:31:02.074Z,61.70
2019-05-05T21:33:30.431Z,62.10
2019-05-05T21:35:58.961Z,61.80
2019-05-05T21:38:26.950Z,62.00
2019-05-05T21:40:54.834Z,61.90
2019-05-05T21:43:22.806Z,62.50
2019-05-05T21:45:50.963Z,62.40
2019-05-05T21:48:18.982Z,61.60
2019-05-05T21:50:54.096Z,61.40
2019-05-05T21:53:29.212Z,61.30
2019-05-05T21:56:21.650Z,60.90
2019-05-05T21:58:49.760Z,61.30
2019-05-05T22:01:21.571Z,60.90
2019-05-05T22:03:49.564Z,61.40
2019-05-05T22:06:17.641Z,61.60
2019-05-05T22:08:45.624Z,61.50
2019-05-05T22:11:14.614Z,61.60
2019-05-05T22:13:44.230Z,61.60
2019-05-05T22:16:13.682Z,61.50
2019-05-05T22:18:41.839Z,61.70
2019-05-05T22:21:25.079Z,62.10
2019-05-05T22:24:15.573Z,62.50
2019-05-05T22:26:44.549Z,62.60
2019-05-05T22:29:14.105Z,63.50
2019-05-05T22:31:42.520Z,63.10
2019-05-05T22:34:10.667Z,63.40
2019-05-05T22:36:38.433Z,64.00
2019-05-05T22:39:08.002Z,64.60
2019-05-05T22:41:35.615Z,64.40
2019-05-05T22:44:04.484Z,65.10
2019-05-05T22:46:32.085Z,64.80
2019-05-05T22:49:00.066Z,64.80
2019-05-05T22:51:27.919Z,64.80
2019-05-05T22:53:55.563Z,65.30
2019-05-05T22:56:24.123Z,65.20
2019-05-05T22:58:54.578Z,65.30
2019-05-05T23:01:24.047Z,65.60
2019-05-05T23:04:03.665Z,64.90
2019-05-05T23:06:31.946Z,65.20
2019-05-05T23:09:00.468Z,65.80
2019-05-05T23:11:28.238Z,65.70
2019-05-05T23:14:15.326Z,65.70
2019-05-05T23:16:44.839Z,65.40
2019-05-05T23:19:12.874Z,65.40
2019-05-05T23:21:46.960Z,65.50
2019-05-05T23:24:30.403Z,65.90
2019-05-05T23:26:58.469Z,66.10
2019-05-05T23:29:26.641Z,66.30
2019-05-05T23:31:54.446Z,66.00
2019-05-05T23:34:24.127Z,66.20
2019-05-05T23:36:53.468Z,66.10
2019-05-05T23:39:21.603Z,67.10
2019-05-05T23:41:49.313Z,66.60
2019-05-05T23:44:17.029Z,66.70
2019-05-05T23:46:44.584Z,66.90
2019-05-05T23:49:13.813Z,67.60
2019-05-05T23:51:43.991Z,67.40
2019-05-05T23:54:11.264Z,66.60
2019-05-05T23:56:39.670Z,67.50
2019-05-05T23:59:07.570Z,67.80
